DFALK BGBW-BIKF
Flight info
| Callsign | DFALK |
|---|---|
| Flight time | 3h 26m |
| Altitude | 20000 |
| Route | 61N040W 63N030W DCT EPENI DCT ELDIS ELDIS4K |
| Aircraft | C208/L-SDFGR/C |
Departure
| Time | 2026-04-28 12:06 |
|---|---|
| Airport | Narsarsuaq Airport (BGBW) |
Arrival
| Time | 2026-04-28 15:32 |
|---|---|
| Airport | Keflavik International Airport (BIKF) |
| Time | Latitude | Longitude | Altitude | Speed | Heading |
|---|---|---|---|---|---|
| 2026-04-28 11:54 | 61.16194 | -45.41901 | 70 ft | 0 kts | 222° |
| 2026-04-28 12:03 | 61.16189 | -45.41916 | 70 ft | 7 kts | 259° |
| 2026-04-28 12:03 | 61.16218 | -45.41889 | 70 ft | 0 kts | 89° |
| 2026-04-28 12:03 | 61.16271 | -45.41968 | 70 ft | 26 kts | 303° |
| 2026-04-28 12:03 | 61.16368 | -45.42037 | 83 ft | 14 kts | 33° |
| 2026-04-28 12:04 | 61.16441 | -45.41920 | 85 ft | 13 kts | 40° |
| 2026-04-28 12:04 | 61.16528 | -45.41769 | 86 ft | 17 kts | 40° |
| 2026-04-28 12:04 | 61.16606 | -45.41626 | 90 ft | 14 kts | 52° |
| 2026-04-28 12:04 | 61.16665 | -45.41508 | 93 ft | 11 kts | 315° |
| 2026-04-28 12:05 | 61.16651 | -45.41565 | 92 ft | 0 kts | 224° |
| 2026-04-28 12:05 | 61.16455 | -45.41902 | 87 ft | 80 kts | 220° |
| 2026-04-28 12:06 | 61.15950 | -45.42735 | 423 ft | 92 kts | 217° |
| 2026-04-28 12:06 | 61.15413 | -45.43556 | 855 ft | 99 kts | 216° |
| 2026-04-28 12:06 | 61.14848 | -45.44375 | 1276 ft | 102 kts | 214° |
| 2026-04-28 12:06 | 61.14244 | -45.45183 | 1656 ft | 104 kts | 211° |
| 2026-04-28 12:07 | 61.13582 | -45.45994 | 1900 ft | 120 kts | 212° |
| 2026-04-28 12:07 | 61.13021 | -45.47254 | 2296 ft | 121 kts | 242° |
| 2026-04-28 12:07 | 61.12878 | -45.48959 | 2677 ft | 123 kts | 274° |
| 2026-04-28 12:07 | 61.13234 | -45.50553 | 3032 ft | 126 kts | 315° |
| 2026-04-28 12:08 | 61.14101 | -45.50766 | 3419 ft | 138 kts | 9° |
| 2026-04-28 12:08 | 61.14979 | -45.50183 | 3832 ft | 127 kts | 6° |
| 2026-04-28 12:08 | 61.15816 | -45.49669 | 4170 ft | 130 kts | 18° |
| 2026-04-28 12:08 | 61.16429 | -45.48087 | 4385 ft | 160 kts | 60° |
| 2026-04-28 12:09 | 61.16419 | -45.45631 | 4570 ft | 179 kts | 99° |
| 2026-04-28 12:09 | 61.16084 | -45.43203 | 4932 ft | 170 kts | 91° |
| 2026-04-28 12:09 | 61.15937 | -45.40770 | 5200 ft | 170 kts | 86° |
| 2026-04-28 12:09 | 61.15962 | -45.38344 | 5453 ft | 170 kts | 77° |
| 2026-04-28 12:10 | 61.16005 | -45.35851 | 5700 ft | 174 kts | 80° |
| 2026-04-28 12:10 | 61.15991 | -45.33343 | 5950 ft | 173 kts | 82° |
| 2026-04-28 12:10 | 61.15961 | -45.30832 | 6199 ft | 174 kts | 82° |
| 2026-04-28 12:10 | 61.15933 | -45.28342 | 6442 ft | 171 kts | 82° |
| 2026-04-28 12:11 | 61.15908 | -45.25910 | 6694 ft | 168 kts | 81° |
| 2026-04-28 12:11 | 61.15883 | -45.23491 | 6944 ft | 168 kts | 81° |
| 2026-04-28 12:11 | 61.15858 | -45.21061 | 7206 ft | 171 kts | 82° |
| 2026-04-28 12:11 | 61.15829 | -45.18586 | 7442 ft | 170 kts | 82° |
| 2026-04-28 12:12 | 61.15800 | -45.16151 | 7686 ft | 168 kts | 82° |
| 2026-04-28 12:12 | 61.15770 | -45.13798 | 7924 ft | 159 kts | 82° |
| 2026-04-28 12:12 | 61.15768 | -45.11555 | 8113 ft | 155 kts | 81° |
| 2026-04-28 12:12 | 61.15734 | -45.09303 | 8270 ft | 163 kts | 84° |
| 2026-04-28 12:13 | 61.15683 | -45.06879 | 8455 ft | 174 kts | 82° |
| 2026-04-28 12:13 | 61.15661 | -45.04306 | 8636 ft | 183 kts | 83° |
| 2026-04-28 12:13 | 61.15628 | -45.01641 | 8801 ft | 185 kts | 83° |
| 2026-04-28 12:13 | 61.15593 | -44.98969 | 8984 ft | 187 kts | 83° |
| 2026-04-28 12:14 | 61.15556 | -44.96270 | 9154 ft | 187 kts | 83° |
| 2026-04-28 12:14 | 61.15520 | -44.93602 | 9329 ft | 184 kts | 83° |
| 2026-04-28 12:14 | 61.15486 | -44.90934 | 9459 ft | 187 kts | 83° |
| 2026-04-28 12:14 | 61.15452 | -44.88201 | 9590 ft | 193 kts | 84° |
| 2026-04-28 12:15 | 61.15413 | -44.85410 | 9711 ft | 194 kts | 84° |
| 2026-04-28 12:15 | 61.15372 | -44.82627 | 9839 ft | 195 kts | 84° |
| 2026-04-28 12:15 | 61.15333 | -44.79800 | 9965 ft | 196 kts | 84° |
| 2026-04-28 12:15 | 61.15290 | -44.76983 | 10082 ft | 193 kts | 84° |
| 2026-04-28 12:16 | 61.15253 | -44.74228 | 10205 ft | 189 kts | 84° |
| 2026-04-28 12:16 | 61.15213 | -44.71514 | 10329 ft | 188 kts | 84° |
| 2026-04-28 12:16 | 61.15171 | -44.68818 | 10456 ft | 187 kts | 85° |
| 2026-04-28 12:16 | 61.15133 | -44.66128 | 10586 ft | 187 kts | 85° |
| 2026-04-28 12:17 | 61.15092 | -44.63420 | 10704 ft | 188 kts | 85° |
| 2026-04-28 12:17 | 61.15050 | -44.60723 | 10831 ft | 187 kts | 85° |
| 2026-04-28 12:17 | 61.15010 | -44.58076 | 10955 ft | 187 kts | 85° |
| 2026-04-28 12:17 | 61.14967 | -44.55392 | 11081 ft | 187 kts | 85° |
| 2026-04-28 12:18 | 61.14923 | -44.52702 | 11200 ft | 187 kts | 86° |
| 2026-04-28 12:18 | 61.14880 | -44.50027 | 11329 ft | 186 kts | 86° |
| 2026-04-28 12:18 | 61.14836 | -44.47354 | 11455 ft | 186 kts | 86° |
| 2026-04-28 12:18 | 61.14792 | -44.44682 | 11582 ft | 186 kts | 86° |
| 2026-04-28 12:19 | 61.14746 | -44.41999 | 11704 ft | 186 kts | 87° |
| 2026-04-28 12:19 | 61.14701 | -44.39314 | 11833 ft | 187 kts | 87° |
| 2026-04-28 12:19 | 61.14654 | -44.36632 | 11957 ft | 187 kts | 87° |
| 2026-04-28 12:19 | 61.14608 | -44.33950 | 12083 ft | 186 kts | 88° |
| 2026-04-28 12:20 | 61.14560 | -44.31273 | 12208 ft | 186 kts | 88° |
| 2026-04-28 12:20 | 61.14514 | -44.28600 | 12333 ft | 186 kts | 88° |
| 2026-04-28 12:20 | 61.14466 | -44.25915 | 12459 ft | 187 kts | 88° |
| 2026-04-28 12:20 | 61.14416 | -44.23234 | 12583 ft | 187 kts | 88° |
| 2026-04-28 12:21 | 61.14368 | -44.20547 | 12708 ft | 187 kts | 88° |
| 2026-04-28 12:21 | 61.14318 | -44.17863 | 12834 ft | 187 kts | 88° |
| 2026-04-28 12:21 | 61.14266 | -44.15175 | 12960 ft | 187 kts | 88° |
| 2026-04-28 12:21 | 61.14215 | -44.12476 | 13081 ft | 188 kts | 88° |
| 2026-04-28 12:22 | 61.14163 | -44.09777 | 13215 ft | 188 kts | 88° |
| 2026-04-28 12:22 | 61.14109 | -44.07074 | 13334 ft | 188 kts | 88° |
| 2026-04-28 12:22 | 61.14057 | -44.04381 | 13460 ft | 188 kts | 88° |
| 2026-04-28 12:22 | 61.14004 | -44.01680 | 13585 ft | 188 kts | 88° |
| 2026-04-28 12:23 | 61.13950 | -43.98970 | 13711 ft | 188 kts | 88° |
| 2026-04-28 12:23 | 61.13895 | -43.96260 | 13837 ft | 188 kts | 90° |
| 2026-04-28 12:23 | 61.13840 | -43.93562 | 13962 ft | 188 kts | 90° |
| 2026-04-28 12:23 | 61.13784 | -43.90862 | 14087 ft | 188 kts | 90° |
| 2026-04-28 12:24 | 61.13728 | -43.88161 | 14211 ft | 188 kts | 90° |
| 2026-04-28 12:24 | 61.13672 | -43.85460 | 14336 ft | 189 kts | 89° |
| 2026-04-28 12:24 | 61.13614 | -43.82751 | 14462 ft | 188 kts | 90° |
| 2026-04-28 12:24 | 61.13556 | -43.80050 | 14583 ft | 187 kts | 90° |
| 2026-04-28 12:25 | 61.13498 | -43.77370 | 14714 ft | 187 kts | 90° |
| 2026-04-28 12:25 | 61.13441 | -43.74659 | 14840 ft | 189 kts | 90° |
| 2026-04-28 12:25 | 61.13381 | -43.71936 | 14963 ft | 190 kts | 90° |
| 2026-04-28 12:25 | 61.13319 | -43.69204 | 15087 ft | 189 kts | 90° |
| 2026-04-28 12:26 | 61.13258 | -43.66489 | 15215 ft | 189 kts | 90° |
| 2026-04-28 12:26 | 61.13196 | -43.63757 | 15337 ft | 190 kts | 90° |
| 2026-04-28 12:26 | 61.13133 | -43.61021 | 15465 ft | 190 kts | 90° |
| 2026-04-28 12:26 | 61.13071 | -43.58289 | 15590 ft | 190 kts | 90° |
| 2026-04-28 12:27 | 61.13007 | -43.55557 | 15715 ft | 191 kts | 90° |
| 2026-04-28 12:27 | 61.12943 | -43.52809 | 15840 ft | 191 kts | 90° |
| 2026-04-28 12:27 | 61.12879 | -43.50091 | 15964 ft | 192 kts | 90° |
| 2026-04-28 12:27 | 61.12813 | -43.47332 | 16089 ft | 192 kts | 90° |
| 2026-04-28 12:28 | 61.12746 | -43.44568 | 16215 ft | 192 kts | 91° |
| 2026-04-28 12:28 | 61.12680 | -43.41802 | 16341 ft | 193 kts | 90° |
| 2026-04-28 12:28 | 61.12611 | -43.39028 | 16465 ft | 193 kts | 90° |
| 2026-04-28 12:28 | 61.12543 | -43.36256 | 16593 ft | 193 kts | 90° |
| 2026-04-28 12:29 | 61.12404 | -43.30708 | 16840 ft | 192 kts | 91° |
| 2026-04-28 12:29 | 61.12335 | -43.27946 | 16960 ft | 193 kts | 91° |
| 2026-04-28 12:29 | 61.12265 | -43.25184 | 17090 ft | 192 kts | 90° |
| 2026-04-28 12:30 | 61.12194 | -43.22422 | 17216 ft | 192 kts | 90° |
| 2026-04-28 12:30 | 61.12122 | -43.19661 | 17339 ft | 192 kts | 91° |
| 2026-04-28 12:30 | 61.12051 | -43.16907 | 17466 ft | 191 kts | 91° |
| 2026-04-28 12:30 | 61.11978 | -43.14160 | 17591 ft | 192 kts | 91° |
| 2026-04-28 12:31 | 61.11905 | -43.11402 | 17716 ft | 192 kts | 91° |
| 2026-04-28 12:31 | 61.11832 | -43.08643 | 17840 ft | 193 kts | 91° |
| 2026-04-28 12:31 | 61.11758 | -43.05888 | 17963 ft | 191 kts | 91° |
| 2026-04-28 12:31 | 61.11684 | -43.03157 | 18093 ft | 190 kts | 91° |
| 2026-04-28 12:32 | 61.11608 | -43.00410 | 18222 ft | 192 kts | 91° |
| 2026-04-28 12:32 | 61.11532 | -42.97660 | 18344 ft | 192 kts | 91° |
| 2026-04-28 12:32 | 61.11456 | -42.94896 | 18472 ft | 193 kts | 91° |
| 2026-04-28 12:32 | 61.11379 | -42.92135 | 18592 ft | 192 kts | 91° |
| 2026-04-28 12:33 | 61.11302 | -42.89379 | 18718 ft | 192 kts | 91° |
| 2026-04-28 12:33 | 61.11223 | -42.86622 | 18843 ft | 192 kts | 91° |
| 2026-04-28 12:33 | 61.11144 | -42.83866 | 18970 ft | 192 kts | 91° |
| 2026-04-28 12:33 | 61.11065 | -42.81104 | 19096 ft | 193 kts | 91° |
| 2026-04-28 12:34 | 61.10985 | -42.78340 | 19220 ft | 193 kts | 91° |
| 2026-04-28 12:34 | 61.10904 | -42.75574 | 19346 ft | 193 kts | 91° |
| 2026-04-28 12:34 | 61.10822 | -42.72802 | 19469 ft | 193 kts | 91° |
| 2026-04-28 12:34 | 61.10740 | -42.70035 | 19594 ft | 192 kts | 91° |
| 2026-04-28 12:35 | 61.10659 | -42.67280 | 19720 ft | 192 kts | 91° |
| 2026-04-28 12:35 | 61.10576 | -42.64490 | 19755 ft | 197 kts | 91° |
| 2026-04-28 12:35 | 61.10489 | -42.61623 | 19757 ft | 202 kts | 91° |
| 2026-04-28 12:35 | 61.10400 | -42.58737 | 19759 ft | 205 kts | 91° |
| 2026-04-28 12:36 | 61.10307 | -42.55740 | 19755 ft | 207 kts | 91° |
| 2026-04-28 12:36 | 61.10217 | -42.52805 | 19760 ft | 208 kts | 92° |
| 2026-04-28 12:36 | 61.10123 | -42.49778 | 19760 ft | 208 kts | 92° |
| 2026-04-28 12:36 | 61.10029 | -42.46791 | 19760 ft | 209 kts | 92° |
| 2026-04-28 12:37 | 61.09936 | -42.43835 | 19756 ft | 209 kts | 92° |
| 2026-04-28 12:37 | 61.09840 | -42.40803 | 19758 ft | 209 kts | 92° |
| 2026-04-28 12:37 | 61.09746 | -42.37845 | 19758 ft | 209 kts | 92° |
| 2026-04-28 12:37 | 61.09649 | -42.34851 | 19758 ft | 209 kts | 92° |
| 2026-04-28 12:38 | 61.09552 | -42.31863 | 19758 ft | 208 kts | 92° |
| 2026-04-28 12:38 | 61.09454 | -42.28873 | 19758 ft | 208 kts | 92° |
| 2026-04-28 12:38 | 61.09356 | -42.25882 | 19758 ft | 208 kts | 92° |
| 2026-04-28 12:38 | 61.09257 | -42.22895 | 19754 ft | 208 kts | 92° |
| 2026-04-28 12:39 | 61.09158 | -42.19908 | 19758 ft | 208 kts | 92° |
| 2026-04-28 12:39 | 61.09058 | -42.16924 | 19754 ft | 209 kts | 92° |
| 2026-04-28 12:39 | 61.08957 | -42.13929 | 19754 ft | 209 kts | 92° |
| 2026-04-28 12:39 | 61.08856 | -42.10940 | 19747 ft | 209 kts | 92° |
| 2026-04-28 12:40 | 61.08754 | -42.07952 | 19746 ft | 209 kts | 92° |
| 2026-04-28 12:40 | 61.08651 | -42.04965 | 19746 ft | 208 kts | 92° |
| 2026-04-28 12:40 | 61.08547 | -42.01983 | 19750 ft | 208 kts | 92° |
| 2026-04-28 12:40 | 61.08443 | -41.99000 | 19750 ft | 208 kts | 92° |
| 2026-04-28 12:41 | 61.08374 | -41.97030 | 19750 ft | 208 kts | 93° |
| 2026-04-28 12:41 | 61.08270 | -41.94060 | 19750 ft | 207 kts | 94° |
| 2026-04-28 12:41 | 61.08164 | -41.91092 | 19746 ft | 207 kts | 93° |
| 2026-04-28 12:41 | 61.08058 | -41.88127 | 19750 ft | 207 kts | 94° |
| 2026-04-28 12:42 | 61.07952 | -41.85164 | 19750 ft | 207 kts | 94° |
| 2026-04-28 12:42 | 61.07845 | -41.82206 | 19750 ft | 206 kts | 94° |
| 2026-04-28 12:42 | 61.07738 | -41.79250 | 19750 ft | 207 kts | 94° |
| 2026-04-28 12:42 | 61.07630 | -41.76293 | 19750 ft | 206 kts | 94° |
| 2026-04-28 12:43 | 61.07521 | -41.73336 | 19748 ft | 206 kts | 94° |
| 2026-04-28 12:43 | 61.07412 | -41.70384 | 19750 ft | 206 kts | 94° |
| 2026-04-28 12:43 | 61.07302 | -41.67429 | 19733 ft | 207 kts | 94° |
| 2026-04-28 12:43 | 61.07191 | -41.64470 | 19739 ft | 207 kts | 94° |
| 2026-04-28 12:44 | 61.07079 | -41.61510 | 19740 ft | 207 kts | 94° |
| 2026-04-28 12:44 | 61.06967 | -41.58548 | 19740 ft | 207 kts | 94° |
| 2026-04-28 12:44 | 61.06854 | -41.55582 | 19740 ft | 207 kts | 94° |
| 2026-04-28 12:44 | 61.06741 | -41.52624 | 19732 ft | 207 kts | 94° |
| 2026-04-28 12:45 | 61.06627 | -41.49665 | 19740 ft | 207 kts | 94° |
| 2026-04-28 12:45 | 61.06513 | -41.46705 | 19733 ft | 207 kts | 94° |
| 2026-04-28 12:45 | 61.06397 | -41.43747 | 19740 ft | 207 kts | 94° |
| 2026-04-28 12:45 | 61.06281 | -41.40784 | 19735 ft | 207 kts | 94° |
| 2026-04-28 12:46 | 61.06164 | -41.37823 | 19738 ft | 207 kts | 94° |
| 2026-04-28 12:46 | 61.06046 | -41.34862 | 19740 ft | 207 kts | 94° |
| 2026-04-28 12:46 | 61.05929 | -41.31905 | 19740 ft | 206 kts | 95° |
| 2026-04-28 12:46 | 61.05810 | -41.28957 | 19738 ft | 206 kts | 95° |
| 2026-04-28 12:47 | 61.05691 | -41.26001 | 19737 ft | 207 kts | 95° |
| 2026-04-28 12:47 | 61.05571 | -41.23042 | 19729 ft | 207 kts | 95° |
| 2026-04-28 12:47 | 61.05451 | -41.20082 | 19729 ft | 207 kts | 95° |
| 2026-04-28 12:47 | 61.05330 | -41.17125 | 19729 ft | 207 kts | 95° |
| 2026-04-28 12:48 | 61.05208 | -41.14169 | 19729 ft | 207 kts | 95° |
| 2026-04-28 12:48 | 61.05085 | -41.11213 | 19729 ft | 207 kts | 95° |
| 2026-04-28 12:48 | 61.04964 | -41.08294 | 19729 ft | 207 kts | 95° |
| 2026-04-28 12:48 | 61.04840 | -41.05341 | 19729 ft | 207 kts | 95° |
| 2026-04-28 12:49 | 61.04716 | -41.02387 | 19729 ft | 207 kts | 95° |
| 2026-04-28 12:49 | 61.04590 | -40.99429 | 19729 ft | 207 kts | 95° |
| 2026-04-28 12:49 | 61.04465 | -40.96471 | 19729 ft | 207 kts | 96° |
| 2026-04-28 12:49 | 61.04338 | -40.93508 | 19730 ft | 207 kts | 96° |
| 2026-04-28 12:50 | 61.04211 | -40.90547 | 19730 ft | 207 kts | 96° |
| 2026-04-28 12:50 | 61.04083 | -40.87588 | 19715 ft | 208 kts | 96° |
| 2026-04-28 12:50 | 61.03953 | -40.84588 | 19719 ft | 207 kts | 96° |
| 2026-04-28 12:50 | 61.03823 | -40.81624 | 19719 ft | 207 kts | 96° |
| 2026-04-28 12:51 | 61.03693 | -40.78659 | 19719 ft | 208 kts | 96° |
| 2026-04-28 12:51 | 61.03564 | -40.75731 | 19719 ft | 208 kts | 96° |
| 2026-04-28 12:51 | 61.03432 | -40.72763 | 19719 ft | 208 kts | 96° |
| 2026-04-28 12:51 | 61.03301 | -40.69797 | 19719 ft | 208 kts | 96° |
| 2026-04-28 12:52 | 61.03168 | -40.66833 | 19719 ft | 208 kts | 96° |
| 2026-04-28 12:52 | 61.03035 | -40.63862 | 19719 ft | 208 kts | 96° |
| 2026-04-28 12:52 | 61.02901 | -40.60898 | 19719 ft | 208 kts | 96° |
| 2026-04-28 12:52 | 61.02766 | -40.57925 | 19719 ft | 208 kts | 96° |
| 2026-04-28 12:53 | 61.02630 | -40.54961 | 19720 ft | 208 kts | 96° |
| 2026-04-28 12:53 | 61.02494 | -40.51995 | 19720 ft | 208 kts | 96° |
| 2026-04-28 12:53 | 61.02357 | -40.49024 | 19711 ft | 208 kts | 96° |
| 2026-04-28 12:53 | 61.02220 | -40.46056 | 19710 ft | 208 kts | 96° |
| 2026-04-28 12:54 | 61.02081 | -40.43091 | 19710 ft | 208 kts | 97° |
| 2026-04-28 12:54 | 61.01943 | -40.40127 | 19709 ft | 208 kts | 97° |
| 2026-04-28 12:54 | 61.01803 | -40.37160 | 19710 ft | 208 kts | 97° |
| 2026-04-28 12:54 | 61.01663 | -40.34185 | 19710 ft | 209 kts | 97° |
| 2026-04-28 12:55 | 61.01522 | -40.31207 | 19710 ft | 209 kts | 97° |
| 2026-04-28 12:55 | 61.01380 | -40.28229 | 19710 ft | 209 kts | 97° |
| 2026-04-28 12:55 | 61.01238 | -40.25252 | 19710 ft | 209 kts | 97° |
| 2026-04-28 12:55 | 61.01094 | -40.22274 | 19710 ft | 209 kts | 97° |
| 2026-04-28 12:56 | 61.00950 | -40.19298 | 19711 ft | 209 kts | 97° |
| 2026-04-28 12:56 | 61.00806 | -40.16323 | 19710 ft | 208 kts | 97° |
| 2026-04-28 12:56 | 61.00661 | -40.13349 | 19700 ft | 209 kts | 97° |
| 2026-04-28 12:56 | 61.00514 | -40.10368 | 19700 ft | 209 kts | 97° |
| 2026-04-28 12:57 | 61.00367 | -40.07392 | 19700 ft | 209 kts | 97° |
| 2026-04-28 12:57 | 61.00220 | -40.04414 | 19700 ft | 209 kts | 97° |
| 2026-04-28 12:57 | 61.00097 | -40.01434 | 19693 ft | 209 kts | 90° |
| 2026-04-28 12:57 | 61.00388 | -39.98512 | 19686 ft | 208 kts | 66° |
| 2026-04-28 12:58 | 61.01038 | -39.95865 | 19689 ft | 208 kts | 61° |
| 2026-04-28 12:58 | 61.01712 | -39.93206 | 19689 ft | 210 kts | 61° |
| 2026-04-28 12:58 | 61.02383 | -39.90529 | 19689 ft | 210 kts | 62° |
| 2026-04-28 12:58 | 61.03054 | -39.87843 | 19689 ft | 211 kts | 61° |
| 2026-04-28 12:59 | 61.03728 | -39.85149 | 19689 ft | 212 kts | 61° |
| 2026-04-28 12:59 | 61.04404 | -39.82443 | 19690 ft | 212 kts | 61° |
| 2026-04-28 12:59 | 61.05078 | -39.79744 | 19690 ft | 212 kts | 62° |
| 2026-04-28 12:59 | 61.05754 | -39.77032 | 19690 ft | 212 kts | 62° |
| 2026-04-28 13:00 | 61.06428 | -39.74323 | 19690 ft | 212 kts | 62° |
| 2026-04-28 13:00 | 61.07102 | -39.71611 | 19690 ft | 213 kts | 62° |
| 2026-04-28 13:00 | 61.07779 | -39.68885 | 19690 ft | 213 kts | 62° |
| 2026-04-28 13:00 | 61.08445 | -39.66203 | 19691 ft | 213 kts | 62° |
| 2026-04-28 13:01 | 61.09121 | -39.63476 | 19690 ft | 213 kts | 62° |
| 2026-04-28 13:01 | 61.09795 | -39.60749 | 19690 ft | 213 kts | 62° |
| 2026-04-28 13:01 | 61.10471 | -39.58016 | 19691 ft | 214 kts | 62° |
| 2026-04-28 13:01 | 61.11148 | -39.55273 | 19682 ft | 214 kts | 62° |
| 2026-04-28 13:02 | 61.11824 | -39.52529 | 19682 ft | 214 kts | 62° |
| 2026-04-28 13:02 | 61.12498 | -39.49790 | 19681 ft | 214 kts | 62° |
| 2026-04-28 13:02 | 61.13174 | -39.47043 | 19681 ft | 215 kts | 62° |
| 2026-04-28 13:02 | 61.13851 | -39.44288 | 19682 ft | 215 kts | 62° |
| 2026-04-28 13:03 | 61.14527 | -39.41531 | 19682 ft | 215 kts | 62° |
| 2026-04-28 13:03 | 61.15204 | -39.38770 | 19682 ft | 215 kts | 62° |
| 2026-04-28 13:03 | 61.15879 | -39.36009 | 19682 ft | 215 kts | 62° |
| 2026-04-28 13:03 | 61.16554 | -39.33245 | 19672 ft | 215 kts | 62° |
| 2026-04-28 13:04 | 61.17231 | -39.30470 | 19672 ft | 216 kts | 62° |
| 2026-04-28 13:04 | 61.17907 | -39.27694 | 19672 ft | 216 kts | 63° |
| 2026-04-28 13:04 | 61.18582 | -39.24921 | 19672 ft | 216 kts | 63° |
| 2026-04-28 13:04 | 61.19259 | -39.22139 | 19673 ft | 216 kts | 63° |
| 2026-04-28 13:05 | 61.19936 | -39.19351 | 19673 ft | 216 kts | 63° |
| 2026-04-28 13:05 | 61.20612 | -39.16567 | 19673 ft | 217 kts | 63° |
| 2026-04-28 13:05 | 61.21289 | -39.13765 | 19675 ft | 218 kts | 63° |
| 2026-04-28 13:05 | 61.21972 | -39.10948 | 19687 ft | 218 kts | 63° |
| 2026-04-28 13:06 | 61.22638 | -39.08184 | 19814 ft | 211 kts | 63° |
| 2026-04-28 13:06 | 61.23290 | -39.05478 | 19938 ft | 208 kts | 63° |
| 2026-04-28 13:06 | 61.23932 | -39.02819 | 20061 ft | 205 kts | 63° |
| 2026-04-28 13:06 | 61.24566 | -39.00191 | 20184 ft | 203 kts | 63° |
| 2026-04-28 13:07 | 61.25196 | -38.97577 | 20309 ft | 202 kts | 63° |
| 2026-04-28 13:07 | 61.25824 | -38.94963 | 20432 ft | 202 kts | 63° |
| 2026-04-28 13:07 | 61.26448 | -38.92358 | 20571 ft | 201 kts | 63° |
| 2026-04-28 13:07 | 61.27070 | -38.89758 | 20683 ft | 201 kts | 63° |
| 2026-04-28 13:08 | 61.27691 | -38.87160 | 20802 ft | 200 kts | 63° |
| 2026-04-28 13:08 | 61.28312 | -38.84564 | 20939 ft | 200 kts | 64° |
| 2026-04-28 13:08 | 61.28930 | -38.81974 | 21059 ft | 200 kts | 64° |
| 2026-04-28 13:08 | 61.29548 | -38.79384 | 21183 ft | 200 kts | 64° |
| 2026-04-28 13:09 | 61.30166 | -38.76792 | 21308 ft | 200 kts | 64° |
| 2026-04-28 13:09 | 61.30781 | -38.74203 | 21428 ft | 200 kts | 64° |
| 2026-04-28 13:09 | 61.31397 | -38.71606 | 21559 ft | 200 kts | 64° |
| 2026-04-28 13:09 | 61.32014 | -38.69006 | 21684 ft | 200 kts | 64° |
| 2026-04-28 13:10 | 61.32629 | -38.66413 | 21810 ft | 200 kts | 64° |
| 2026-04-28 13:10 | 61.33243 | -38.63820 | 21934 ft | 200 kts | 64° |
| 2026-04-28 13:10 | 61.33855 | -38.61232 | 22059 ft | 199 kts | 64° |
| 2026-04-28 13:10 | 61.34464 | -38.58646 | 22185 ft | 199 kts | 64° |
| 2026-04-28 13:11 | 61.35073 | -38.56061 | 22310 ft | 199 kts | 64° |
| 2026-04-28 13:11 | 61.35681 | -38.53481 | 22434 ft | 198 kts | 65° |
| 2026-04-28 13:11 | 61.36289 | -38.50900 | 22560 ft | 198 kts | 65° |
| 2026-04-28 13:11 | 61.36895 | -38.48322 | 22689 ft | 198 kts | 65° |
| 2026-04-28 13:12 | 61.37500 | -38.45740 | 22810 ft | 198 kts | 65° |
| 2026-04-28 13:12 | 61.38106 | -38.43159 | 22936 ft | 198 kts | 65° |
| 2026-04-28 13:12 | 61.38710 | -38.40579 | 23061 ft | 198 kts | 65° |
| 2026-04-28 13:12 | 61.39313 | -38.38003 | 23189 ft | 198 kts | 65° |
| 2026-04-28 13:13 | 61.39915 | -38.35426 | 23311 ft | 197 kts | 65° |
| 2026-04-28 13:13 | 61.40514 | -38.32855 | 23435 ft | 197 kts | 65° |
| 2026-04-28 13:13 | 61.41115 | -38.30280 | 23562 ft | 197 kts | 65° |
| 2026-04-28 13:13 | 61.41715 | -38.27704 | 23649 ft | 199 kts | 65° |
| 2026-04-28 13:14 | 61.42327 | -38.25064 | 23653 ft | 205 kts | 65° |
| 2026-04-28 13:14 | 61.42952 | -38.22365 | 23655 ft | 208 kts | 65° |
| 2026-04-28 13:14 | 61.43589 | -38.19617 | 23644 ft | 212 kts | 65° |
| 2026-04-28 13:14 | 61.44233 | -38.16838 | 23646 ft | 213 kts | 65° |
| 2026-04-28 13:15 | 61.44880 | -38.14040 | 23647 ft | 214 kts | 65° |
| 2026-04-28 13:15 | 61.45529 | -38.11229 | 23647 ft | 215 kts | 66° |
| 2026-04-28 13:15 | 61.46179 | -38.08410 | 23648 ft | 216 kts | 66° |
| 2026-04-28 13:15 | 61.46822 | -38.05620 | 23645 ft | 216 kts | 66° |
| 2026-04-28 13:16 | 61.47474 | -38.02787 | 23645 ft | 216 kts | 66° |
| 2026-04-28 13:16 | 61.48125 | -37.99954 | 23645 ft | 216 kts | 66° |
| 2026-04-28 13:16 | 61.48775 | -37.97124 | 23641 ft | 216 kts | 66° |
| 2026-04-28 13:16 | 61.49427 | -37.94278 | 23635 ft | 217 kts | 67° |
| 2026-04-28 13:17 | 61.50079 | -37.91429 | 23634 ft | 217 kts | 67° |
| 2026-04-28 13:17 | 61.50732 | -37.88571 | 23635 ft | 218 kts | 67° |
| 2026-04-28 13:17 | 61.51385 | -37.85712 | 23635 ft | 218 kts | 67° |
| 2026-04-28 13:17 | 61.52037 | -37.82845 | 23634 ft | 218 kts | 67° |
| 2026-04-28 13:18 | 61.52690 | -37.79981 | 23635 ft | 218 kts | 67° |
| 2026-04-28 13:18 | 61.53342 | -37.77114 | 23635 ft | 218 kts | 67° |
| 2026-04-28 13:18 | 61.53994 | -37.74243 | 23635 ft | 218 kts | 68° |
| 2026-04-28 13:18 | 61.54645 | -37.71371 | 23635 ft | 218 kts | 68° |
| 2026-04-28 13:19 | 61.55298 | -37.68486 | 23625 ft | 219 kts | 68° |
| 2026-04-28 13:19 | 61.55950 | -37.65603 | 23625 ft | 219 kts | 68° |
| 2026-04-28 13:19 | 61.56603 | -37.62712 | 23625 ft | 219 kts | 68° |
| 2026-04-28 13:19 | 61.57253 | -37.59829 | 23625 ft | 219 kts | 68° |
| 2026-04-28 13:20 | 61.57905 | -37.56935 | 23625 ft | 219 kts | 68° |
| 2026-04-28 13:20 | 61.58555 | -37.54041 | 23625 ft | 219 kts | 68° |
| 2026-04-28 13:20 | 61.59206 | -37.51146 | 23625 ft | 219 kts | 68° |
| 2026-04-28 13:20 | 61.59857 | -37.48244 | 23625 ft | 220 kts | 68° |
| 2026-04-28 13:21 | 61.60507 | -37.45340 | 23625 ft | 220 kts | 68° |
| 2026-04-28 13:21 | 61.61160 | -37.42422 | 23615 ft | 220 kts | 69° |
| 2026-04-28 13:21 | 61.61812 | -37.39501 | 23616 ft | 221 kts | 69° |
| 2026-04-28 13:21 | 61.62465 | -37.36575 | 23616 ft | 221 kts | 69° |
| 2026-04-28 13:22 | 61.63118 | -37.33644 | 23616 ft | 222 kts | 69° |
| 2026-04-28 13:22 | 61.63770 | -37.30709 | 23616 ft | 222 kts | 69° |
| 2026-04-28 13:22 | 61.64424 | -37.27769 | 23616 ft | 222 kts | 69° |
| 2026-04-28 13:22 | 61.65077 | -37.24823 | 23616 ft | 222 kts | 69° |
| 2026-04-28 13:23 | 61.65730 | -37.21874 | 23616 ft | 223 kts | 69° |
| 2026-04-28 13:23 | 61.66385 | -37.18916 | 23616 ft | 223 kts | 69° |
| 2026-04-28 13:23 | 61.67041 | -37.15949 | 23606 ft | 224 kts | 70° |
| 2026-04-28 13:23 | 61.67697 | -37.12975 | 23607 ft | 224 kts | 70° |
| 2026-04-28 13:24 | 61.68352 | -37.09996 | 23605 ft | 224 kts | 70° |
| 2026-04-28 13:24 | 61.69012 | -37.06997 | 23578 ft | 226 kts | 70° |
| 2026-04-28 13:24 | 61.69670 | -37.03998 | 23578 ft | 226 kts | 70° |
| 2026-04-28 13:24 | 61.70329 | -37.00996 | 23578 ft | 226 kts | 70° |
| 2026-04-28 13:25 | 61.70988 | -36.97987 | 23577 ft | 226 kts | 70° |
| 2026-04-28 13:25 | 61.71646 | -36.94982 | 23580 ft | 226 kts | 71° |
| 2026-04-28 13:25 | 61.72301 | -36.91979 | 23580 ft | 226 kts | 71° |
| 2026-04-28 13:25 | 61.72957 | -36.88970 | 23576 ft | 226 kts | 71° |
| 2026-04-28 13:26 | 61.73612 | -36.85964 | 23578 ft | 226 kts | 71° |
| 2026-04-28 13:26 | 61.74047 | -36.83970 | 23579 ft | 226 kts | 71° |
| 2026-04-28 13:26 | 61.74701 | -36.80956 | 23570 ft | 227 kts | 71° |
| 2026-04-28 13:26 | 61.75357 | -36.77928 | 23571 ft | 226 kts | 71° |
| 2026-04-28 13:27 | 61.76011 | -36.74906 | 23570 ft | 227 kts | 71° |
| 2026-04-28 13:27 | 61.76666 | -36.71883 | 23570 ft | 227 kts | 72° |
| 2026-04-28 13:27 | 61.77320 | -36.68857 | 23570 ft | 227 kts | 72° |
| 2026-04-28 13:27 | 61.77974 | -36.65826 | 23570 ft | 227 kts | 72° |
| 2026-04-28 13:28 | 61.78627 | -36.62793 | 23570 ft | 227 kts | 72° |
| 2026-04-28 13:28 | 61.79280 | -36.59758 | 23570 ft | 227 kts | 73° |
| 2026-04-28 13:28 | 61.79931 | -36.56726 | 23570 ft | 227 kts | 73° |
| 2026-04-28 13:28 | 61.80584 | -36.53685 | 23570 ft | 227 kts | 73° |
| 2026-04-28 13:29 | 61.81236 | -36.50639 | 23570 ft | 227 kts | 73° |
| 2026-04-28 13:29 | 61.81886 | -36.47599 | 23571 ft | 227 kts | 73° |
| 2026-04-28 13:29 | 61.82535 | -36.44560 | 23571 ft | 227 kts | 73° |
| 2026-04-28 13:29 | 61.83183 | -36.41517 | 23571 ft | 227 kts | 73° |
| 2026-04-28 13:30 | 61.83830 | -36.38476 | 23571 ft | 227 kts | 73° |
| 2026-04-28 13:30 | 61.84478 | -36.35430 | 23571 ft | 226 kts | 73° |
| 2026-04-28 13:30 | 61.85123 | -36.32391 | 23571 ft | 226 kts | 73° |
| 2026-04-28 13:30 | 61.85768 | -36.29348 | 23571 ft | 226 kts | 73° |
| 2026-04-28 13:31 | 61.87054 | -36.23272 | 23571 ft | 226 kts | 73° |
| 2026-04-28 13:31 | 61.87696 | -36.20228 | 23571 ft | 226 kts | 73° |
| 2026-04-28 13:31 | 61.88337 | -36.17188 | 23571 ft | 226 kts | 74° |
| 2026-04-28 13:32 | 61.88976 | -36.14151 | 23571 ft | 226 kts | 74° |
| 2026-04-28 13:32 | 61.89614 | -36.11110 | 23571 ft | 226 kts | 74° |
| 2026-04-28 13:32 | 61.90252 | -36.08069 | 23571 ft | 226 kts | 74° |
| 2026-04-28 13:32 | 61.90889 | -36.05030 | 23572 ft | 226 kts | 74° |
| 2026-04-28 13:33 | 61.91527 | -36.01985 | 23559 ft | 226 kts | 74° |
| 2026-04-28 13:33 | 61.92162 | -35.98941 | 23561 ft | 226 kts | 74° |
| 2026-04-28 13:33 | 61.92797 | -35.95894 | 23560 ft | 225 kts | 74° |
| 2026-04-28 13:33 | 61.93430 | -35.92853 | 23560 ft | 225 kts | 74° |
| 2026-04-28 13:34 | 61.94063 | -35.89811 | 23561 ft | 225 kts | 74° |
| 2026-04-28 13:34 | 61.94696 | -35.86765 | 23561 ft | 225 kts | 74° |
| 2026-04-28 13:34 | 61.95326 | -35.83722 | 23561 ft | 225 kts | 75° |
| 2026-04-28 13:34 | 61.95956 | -35.80677 | 23561 ft | 225 kts | 75° |
| 2026-04-28 13:35 | 61.96588 | -35.77626 | 23561 ft | 225 kts | 75° |
| 2026-04-28 13:35 | 61.97219 | -35.74570 | 23561 ft | 226 kts | 75° |
| 2026-04-28 13:35 | 61.97848 | -35.71518 | 23561 ft | 226 kts | 75° |
| 2026-04-28 13:35 | 61.98478 | -35.68456 | 23561 ft | 226 kts | 75° |
| 2026-04-28 13:36 | 61.99108 | -35.65390 | 23561 ft | 226 kts | 75° |
| 2026-04-28 13:36 | 61.99738 | -35.62319 | 23560 ft | 226 kts | 75° |
| 2026-04-28 13:36 | 62.00366 | -35.59252 | 23561 ft | 227 kts | 75° |
| 2026-04-28 13:36 | 62.00995 | -35.56173 | 23549 ft | 227 kts | 75° |
| 2026-04-28 13:37 | 62.01617 | -35.53133 | 23551 ft | 227 kts | 75° |
| 2026-04-28 13:37 | 62.02246 | -35.50055 | 23551 ft | 227 kts | 76° |
| 2026-04-28 13:37 | 62.02874 | -35.46970 | 23551 ft | 227 kts | 76° |
| 2026-04-28 13:37 | 62.03501 | -35.43888 | 23551 ft | 227 kts | 76° |
| 2026-04-28 13:38 | 62.04127 | -35.40803 | 23551 ft | 227 kts | 76° |
| 2026-04-28 13:38 | 62.04753 | -35.37715 | 23551 ft | 227 kts | 76° |
| 2026-04-28 13:38 | 62.05380 | -35.34619 | 23551 ft | 227 kts | 77° |
| 2026-04-28 13:38 | 62.06005 | -35.31525 | 23551 ft | 228 kts | 77° |
| 2026-04-28 13:39 | 62.06632 | -35.28420 | 23550 ft | 228 kts | 77° |
| 2026-04-28 13:39 | 62.07259 | -35.25305 | 23551 ft | 228 kts | 77° |
| 2026-04-28 13:39 | 62.07885 | -35.22193 | 23552 ft | 228 kts | 78° |
| 2026-04-28 13:39 | 62.08511 | -35.19080 | 23551 ft | 229 kts | 78° |
| 2026-04-28 13:40 | 62.09137 | -35.15957 | 23551 ft | 229 kts | 78° |
| 2026-04-28 13:40 | 62.09765 | -35.12826 | 23551 ft | 229 kts | 78° |
| 2026-04-28 13:40 | 62.10391 | -35.09694 | 23551 ft | 230 kts | 79° |
| 2026-04-28 13:40 | 62.11019 | -35.06548 | 23552 ft | 230 kts | 79° |
| 2026-04-28 13:41 | 62.11647 | -35.03401 | 23551 ft | 231 kts | 79° |
| 2026-04-28 13:41 | 62.12273 | -35.00252 | 23551 ft | 231 kts | 79° |
| 2026-04-28 13:41 | 62.12902 | -34.97090 | 23551 ft | 231 kts | 79° |
| 2026-04-28 13:41 | 62.13528 | -34.93929 | 23552 ft | 231 kts | 80° |
| 2026-04-28 13:42 | 62.14157 | -34.90757 | 23539 ft | 232 kts | 80° |
| 2026-04-28 13:42 | 62.14788 | -34.87570 | 23536 ft | 233 kts | 81° |
| 2026-04-28 13:42 | 62.15417 | -34.84383 | 23533 ft | 233 kts | 81° |
| 2026-04-28 13:42 | 62.16048 | -34.81184 | 23536 ft | 233 kts | 81° |
| 2026-04-28 13:43 | 62.16677 | -34.77992 | 23542 ft | 233 kts | 81° |
| 2026-04-28 13:43 | 62.17307 | -34.74784 | 23542 ft | 234 kts | 81° |
| 2026-04-28 13:43 | 62.17937 | -34.71573 | 23537 ft | 234 kts | 82° |
| 2026-04-28 13:43 | 62.18559 | -34.68400 | 23542 ft | 235 kts | 82° |
| 2026-04-28 13:44 | 62.19197 | -34.65138 | 23537 ft | 235 kts | 82° |
| 2026-04-28 13:44 | 62.19819 | -34.61949 | 23542 ft | 236 kts | 82° |
| 2026-04-28 13:44 | 62.20460 | -34.58664 | 23542 ft | 236 kts | 82° |
| 2026-04-28 13:44 | 62.21083 | -34.55464 | 23543 ft | 236 kts | 83° |
| 2026-04-28 13:45 | 62.21724 | -34.52163 | 23543 ft | 237 kts | 83° |
| 2026-04-28 13:45 | 62.22347 | -34.48953 | 23543 ft | 237 kts | 83° |
| 2026-04-28 13:45 | 62.22981 | -34.45682 | 23543 ft | 237 kts | 83° |
| 2026-04-28 13:45 | 62.23614 | -34.42413 | 23542 ft | 238 kts | 83° |
| 2026-04-28 13:46 | 62.24248 | -34.39132 | 23540 ft | 238 kts | 83° |
| 2026-04-28 13:46 | 62.24881 | -34.35849 | 23540 ft | 238 kts | 84° |
| 2026-04-28 13:46 | 62.25513 | -34.32564 | 23539 ft | 238 kts | 84° |
| 2026-04-28 13:46 | 62.26145 | -34.29275 | 23543 ft | 238 kts | 84° |
| 2026-04-28 13:47 | 62.26775 | -34.25985 | 23533 ft | 238 kts | 84° |
| 2026-04-28 13:47 | 62.27405 | -34.22693 | 23544 ft | 239 kts | 84° |
| 2026-04-28 13:47 | 62.28037 | -34.19393 | 23544 ft | 239 kts | 84° |
| 2026-04-28 13:47 | 62.28667 | -34.16096 | 23544 ft | 239 kts | 84° |
| 2026-04-28 13:48 | 62.29295 | -34.12797 | 23538 ft | 239 kts | 84° |
| 2026-04-28 13:48 | 62.29924 | -34.09493 | 23535 ft | 238 kts | 84° |
| 2026-04-28 13:48 | 62.30551 | -34.06192 | 23540 ft | 239 kts | 84° |
| 2026-04-28 13:48 | 62.31177 | -34.02893 | 23540 ft | 239 kts | 84° |
| 2026-04-28 13:49 | 62.31802 | -33.99586 | 23539 ft | 239 kts | 84° |
| 2026-04-28 13:49 | 62.32427 | -33.96277 | 23544 ft | 239 kts | 85° |
| 2026-04-28 13:49 | 62.33051 | -33.92972 | 23544 ft | 238 kts | 85° |
| 2026-04-28 13:49 | 62.33673 | -33.89668 | 23545 ft | 238 kts | 85° |
| 2026-04-28 13:50 | 62.34294 | -33.86364 | 23544 ft | 238 kts | 85° |
| 2026-04-28 13:50 | 62.34914 | -33.83063 | 23544 ft | 238 kts | 85° |
| 2026-04-28 13:50 | 62.35534 | -33.79756 | 23545 ft | 238 kts | 85° |
| 2026-04-28 13:50 | 62.36153 | -33.76453 | 23544 ft | 238 kts | 85° |
| 2026-04-28 13:51 | 62.36770 | -33.73144 | 23545 ft | 238 kts | 85° |
| 2026-04-28 13:51 | 62.37387 | -33.69832 | 23545 ft | 238 kts | 85° |
| 2026-04-28 13:51 | 62.38004 | -33.66513 | 23543 ft | 238 kts | 85° |
| 2026-04-28 13:51 | 62.38621 | -33.63201 | 23537 ft | 238 kts | 86° |
| 2026-04-28 13:52 | 62.39235 | -33.59891 | 23544 ft | 238 kts | 86° |
| 2026-04-28 13:52 | 62.39849 | -33.56577 | 23537 ft | 238 kts | 86° |
| 2026-04-28 13:52 | 62.40459 | -33.53274 | 23544 ft | 237 kts | 86° |
| 2026-04-28 13:52 | 62.41069 | -33.49970 | 23544 ft | 237 kts | 86° |
| 2026-04-28 13:53 | 62.41677 | -33.46674 | 23537 ft | 237 kts | 86° |
| 2026-04-28 13:53 | 62.42284 | -33.43373 | 23544 ft | 236 kts | 86° |
| 2026-04-28 13:53 | 62.42889 | -33.40078 | 23545 ft | 236 kts | 86° |
| 2026-04-28 13:53 | 62.43493 | -33.36786 | 23535 ft | 236 kts | 87° |
| 2026-04-28 13:54 | 62.44097 | -33.33489 | 23544 ft | 235 kts | 87° |
| 2026-04-28 13:54 | 62.44698 | -33.30201 | 23544 ft | 236 kts | 87° |
| 2026-04-28 13:54 | 62.45298 | -33.26907 | 23545 ft | 236 kts | 87° |
| 2026-04-28 13:54 | 62.45897 | -33.23617 | 23534 ft | 235 kts | 87° |
| 2026-04-28 13:55 | 62.46495 | -33.20330 | 23544 ft | 235 kts | 87° |
| 2026-04-28 13:55 | 62.47092 | -33.17043 | 23537 ft | 235 kts | 87° |
| 2026-04-28 13:55 | 62.47686 | -33.13760 | 23545 ft | 235 kts | 87° |
| 2026-04-28 13:55 | 62.48280 | -33.10471 | 23545 ft | 235 kts | 87° |
| 2026-04-28 13:56 | 62.48873 | -33.07190 | 23545 ft | 234 kts | 88° |
| 2026-04-28 13:56 | 62.49465 | -33.03912 | 23544 ft | 233 kts | 88° |
| 2026-04-28 13:56 | 62.50053 | -33.00644 | 23545 ft | 233 kts | 88° |
| 2026-04-28 13:56 | 62.50639 | -32.97376 | 23546 ft | 233 kts | 88° |
| 2026-04-28 13:57 | 62.51227 | -32.94106 | 23546 ft | 233 kts | 88° |
| 2026-04-28 13:57 | 62.51811 | -32.90839 | 23545 ft | 233 kts | 89° |
| 2026-04-28 13:57 | 62.52396 | -32.87564 | 23545 ft | 233 kts | 89° |
| 2026-04-28 13:57 | 62.52980 | -32.84291 | 23545 ft | 233 kts | 89° |
| 2026-04-28 13:58 | 62.53564 | -32.81014 | 23545 ft | 233 kts | 89° |
| 2026-04-28 13:58 | 62.54147 | -32.77733 | 23545 ft | 233 kts | 89° |
| 2026-04-28 13:58 | 62.54729 | -32.74455 | 23543 ft | 233 kts | 89° |
| 2026-04-28 13:58 | 62.55311 | -32.71170 | 23533 ft | 233 kts | 89° |
| 2026-04-28 13:59 | 62.55892 | -32.67885 | 23545 ft | 233 kts | 89° |
| 2026-04-28 13:59 | 62.56472 | -32.64605 | 23546 ft | 233 kts | 90° |
| 2026-04-28 13:59 | 62.57050 | -32.61326 | 23545 ft | 232 kts | 90° |
| 2026-04-28 13:59 | 62.57627 | -32.58052 | 23544 ft | 232 kts | 90° |
| 2026-04-28 14:00 | 62.58200 | -32.54788 | 23544 ft | 232 kts | 90° |
| 2026-04-28 14:00 | 62.58766 | -32.51562 | 23544 ft | 232 kts | 90° |
| 2026-04-28 14:00 | 62.59338 | -32.48292 | 23544 ft | 232 kts | 90° |
| 2026-04-28 14:00 | 62.59910 | -32.45019 | 23544 ft | 232 kts | 90° |
| 2026-04-28 14:01 | 62.60481 | -32.41744 | 23545 ft | 232 kts | 90° |
| 2026-04-28 14:01 | 62.61053 | -32.38461 | 23545 ft | 232 kts | 90° |
| 2026-04-28 14:01 | 62.61623 | -32.35183 | 23545 ft | 232 kts | 90° |
| 2026-04-28 14:01 | 62.62194 | -32.31899 | 23546 ft | 232 kts | 90° |
| 2026-04-28 14:02 | 62.62762 | -32.28620 | 23545 ft | 232 kts | 90° |
| 2026-04-28 14:02 | 62.63330 | -32.25340 | 23546 ft | 232 kts | 90° |
| 2026-04-28 14:02 | 62.63896 | -32.22059 | 23546 ft | 232 kts | 90° |
| 2026-04-28 14:02 | 62.64463 | -32.18774 | 23545 ft | 232 kts | 90° |
| 2026-04-28 14:03 | 62.65027 | -32.15493 | 23545 ft | 232 kts | 90° |
| 2026-04-28 14:03 | 62.65592 | -32.12204 | 23545 ft | 232 kts | 90° |
| 2026-04-28 14:03 | 62.66156 | -32.08917 | 23546 ft | 232 kts | 90° |
| 2026-04-28 14:03 | 62.66720 | -32.05622 | 23545 ft | 232 kts | 90° |
| 2026-04-28 14:04 | 62.67282 | -32.02333 | 23547 ft | 232 kts | 91° |
| 2026-04-28 14:04 | 62.67844 | -31.99040 | 23546 ft | 232 kts | 91° |
| 2026-04-28 14:04 | 62.68406 | -31.95744 | 23546 ft | 232 kts | 91° |
| 2026-04-28 14:04 | 62.68966 | -31.92449 | 23546 ft | 232 kts | 91° |
| 2026-04-28 14:05 | 62.69525 | -31.89153 | 23546 ft | 232 kts | 91° |
| 2026-04-28 14:05 | 62.70083 | -31.85862 | 23547 ft | 232 kts | 91° |
| 2026-04-28 14:05 | 62.70640 | -31.82570 | 23546 ft | 232 kts | 91° |
| 2026-04-28 14:05 | 62.71196 | -31.79275 | 23547 ft | 232 kts | 91° |
| 2026-04-28 14:06 | 62.71751 | -31.75986 | 23546 ft | 231 kts | 92° |
| 2026-04-28 14:06 | 62.72304 | -31.72697 | 23547 ft | 231 kts | 92° |
| 2026-04-28 14:06 | 62.72855 | -31.69409 | 23547 ft | 231 kts | 92° |
| 2026-04-28 14:06 | 62.73407 | -31.66111 | 23547 ft | 231 kts | 92° |
| 2026-04-28 14:07 | 62.73960 | -31.62814 | 23547 ft | 231 kts | 92° |
| 2026-04-28 14:07 | 62.74510 | -31.59520 | 23547 ft | 231 kts | 92° |
| 2026-04-28 14:07 | 62.75058 | -31.56226 | 23548 ft | 231 kts | 92° |
| 2026-04-28 14:07 | 62.75600 | -31.52972 | 23547 ft | 231 kts | 92° |
| 2026-04-28 14:08 | 62.76155 | -31.49636 | 23547 ft | 231 kts | 92° |
| 2026-04-28 14:08 | 62.76701 | -31.46345 | 23547 ft | 231 kts | 92° |
| 2026-04-28 14:08 | 62.77246 | -31.43051 | 23548 ft | 230 kts | 92° |
| 2026-04-28 14:08 | 62.77606 | -31.40879 | 23547 ft | 230 kts | 92° |
| 2026-04-28 14:09 | 62.78330 | -31.36487 | 23548 ft | 229 kts | 93° |
| 2026-04-28 14:09 | 62.78869 | -31.33212 | 23548 ft | 229 kts | 93° |
| 2026-04-28 14:09 | 62.79409 | -31.29932 | 23547 ft | 229 kts | 93° |
| 2026-04-28 14:09 | 62.79945 | -31.26659 | 23548 ft | 229 kts | 93° |
| 2026-04-28 14:10 | 62.80481 | -31.23387 | 23548 ft | 229 kts | 93° |
| 2026-04-28 14:10 | 62.81017 | -31.20115 | 23547 ft | 228 kts | 93° |
| 2026-04-28 14:10 | 62.81550 | -31.16848 | 23559 ft | 228 kts | 93° |
| 2026-04-28 14:10 | 62.82075 | -31.13627 | 23558 ft | 228 kts | 93° |
| 2026-04-28 14:11 | 62.82606 | -31.10354 | 23558 ft | 228 kts | 93° |
| 2026-04-28 14:11 | 62.83138 | -31.07088 | 23579 ft | 227 kts | 93° |
| 2026-04-28 14:11 | 62.83667 | -31.03824 | 23574 ft | 228 kts | 93° |
| 2026-04-28 14:11 | 62.84194 | -31.00558 | 23576 ft | 228 kts | 94° |
| 2026-04-28 14:12 | 62.84721 | -30.97289 | 23576 ft | 228 kts | 94° |
| 2026-04-28 14:12 | 62.85251 | -30.94012 | 23576 ft | 228 kts | 94° |
| 2026-04-28 14:12 | 62.85777 | -30.90739 | 23573 ft | 228 kts | 94° |
| 2026-04-28 14:12 | 62.86304 | -30.87460 | 23578 ft | 228 kts | 94° |
| 2026-04-28 14:13 | 62.86829 | -30.84186 | 23586 ft | 228 kts | 93° |
| 2026-04-28 14:13 | 62.87182 | -30.81976 | 23584 ft | 228 kts | 94° |
| 2026-04-28 14:13 | 62.87700 | -30.78737 | 23587 ft | 228 kts | 94° |
| 2026-04-28 14:13 | 62.88223 | -30.75458 | 23581 ft | 228 kts | 94° |
| 2026-04-28 14:14 | 62.88753 | -30.72134 | 23587 ft | 228 kts | 94° |
| 2026-04-28 14:14 | 62.89268 | -30.68893 | 23587 ft | 228 kts | 94° |
| 2026-04-28 14:14 | 62.89789 | -30.65612 | 23586 ft | 228 kts | 94° |
| 2026-04-28 14:14 | 62.90308 | -30.62330 | 23587 ft | 228 kts | 94° |
| 2026-04-28 14:15 | 62.90827 | -30.59051 | 23587 ft | 227 kts | 94° |
| 2026-04-28 14:15 | 62.91344 | -30.55771 | 23588 ft | 227 kts | 94° |
| 2026-04-28 14:15 | 62.91868 | -30.52445 | 23585 ft | 227 kts | 94° |
| 2026-04-28 14:15 | 62.92377 | -30.49207 | 23587 ft | 227 kts | 94° |
| 2026-04-28 14:16 | 62.92892 | -30.45926 | 23586 ft | 227 kts | 94° |
| 2026-04-28 14:16 | 62.93407 | -30.42641 | 23586 ft | 227 kts | 94° |
| 2026-04-28 14:16 | 62.93921 | -30.39361 | 23599 ft | 227 kts | 94° |
| 2026-04-28 14:16 | 62.94433 | -30.36079 | 23598 ft | 227 kts | 94° |
| 2026-04-28 14:17 | 62.94943 | -30.32797 | 23598 ft | 227 kts | 94° |
| 2026-04-28 14:17 | 62.95454 | -30.29512 | 23597 ft | 227 kts | 94° |
| 2026-04-28 14:17 | 62.95965 | -30.26226 | 23598 ft | 227 kts | 94° |
| 2026-04-28 14:17 | 62.96473 | -30.22941 | 23598 ft | 227 kts | 94° |
| 2026-04-28 14:18 | 62.96982 | -30.19646 | 23598 ft | 227 kts | 94° |
| 2026-04-28 14:18 | 62.97491 | -30.16357 | 23598 ft | 227 kts | 94° |
| 2026-04-28 14:18 | 62.97998 | -30.13063 | 23598 ft | 227 kts | 94° |
| 2026-04-28 14:18 | 62.98505 | -30.09771 | 23599 ft | 227 kts | 94° |
| 2026-04-28 14:19 | 62.99010 | -30.06486 | 23599 ft | 226 kts | 95° |
| 2026-04-28 14:19 | 62.99512 | -30.03209 | 23599 ft | 226 kts | 95° |
| 2026-04-28 14:19 | 63.00013 | -29.99930 | 23598 ft | 225 kts | 95° |
| 2026-04-28 14:19 | 63.00452 | -29.96673 | 23601 ft | 222 kts | 97° |
| 2026-04-28 14:20 | 63.00898 | -29.93412 | 23604 ft | 223 kts | 96° |
| 2026-04-28 14:20 | 63.01346 | -29.90140 | 23604 ft | 223 kts | 96° |
| 2026-04-28 14:20 | 63.01789 | -29.86880 | 23605 ft | 223 kts | 96° |
| 2026-04-28 14:20 | 63.02231 | -29.83613 | 23605 ft | 222 kts | 97° |
| 2026-04-28 14:21 | 63.02672 | -29.80355 | 23605 ft | 222 kts | 97° |
| 2026-04-28 14:21 | 63.03112 | -29.77090 | 23605 ft | 222 kts | 97° |
| 2026-04-28 14:21 | 63.03551 | -29.73834 | 23605 ft | 222 kts | 97° |
| 2026-04-28 14:21 | 63.03990 | -29.70572 | 23605 ft | 222 kts | 97° |
| 2026-04-28 14:22 | 63.04427 | -29.67314 | 23605 ft | 222 kts | 97° |
| 2026-04-28 14:22 | 63.04863 | -29.64058 | 23605 ft | 222 kts | 97° |
| 2026-04-28 14:22 | 63.05298 | -29.60804 | 23605 ft | 221 kts | 97° |
| 2026-04-28 14:22 | 63.05732 | -29.57549 | 23616 ft | 221 kts | 97° |
| 2026-04-28 14:23 | 63.06164 | -29.54299 | 23614 ft | 221 kts | 97° |
| 2026-04-28 14:23 | 63.06595 | -29.51051 | 23614 ft | 221 kts | 97° |
| 2026-04-28 14:23 | 63.07026 | -29.47797 | 23614 ft | 221 kts | 97° |
| 2026-04-28 14:23 | 63.07458 | -29.44541 | 23614 ft | 221 kts | 97° |
| 2026-04-28 14:24 | 63.07888 | -29.41288 | 23615 ft | 221 kts | 97° |
| 2026-04-28 14:24 | 63.08316 | -29.38030 | 23615 ft | 221 kts | 97° |
| 2026-04-28 14:24 | 63.08744 | -29.34775 | 23615 ft | 221 kts | 97° |
| 2026-04-28 14:24 | 63.09164 | -29.31578 | 23622 ft | 221 kts | 97° |
| 2026-04-28 14:25 | 63.09591 | -29.28311 | 23623 ft | 221 kts | 97° |
| 2026-04-28 14:25 | 63.10016 | -29.25059 | 23623 ft | 221 kts | 97° |
| 2026-04-28 14:25 | 63.10442 | -29.21795 | 23623 ft | 221 kts | 97° |
| 2026-04-28 14:25 | 63.10866 | -29.18540 | 23623 ft | 221 kts | 97° |
| 2026-04-28 14:26 | 63.11289 | -29.15279 | 23624 ft | 221 kts | 97° |
| 2026-04-28 14:26 | 63.11711 | -29.12022 | 23624 ft | 221 kts | 97° |
| 2026-04-28 14:26 | 63.12133 | -29.08761 | 23624 ft | 221 kts | 97° |
| 2026-04-28 14:26 | 63.12553 | -29.05503 | 23624 ft | 221 kts | 97° |
| 2026-04-28 14:27 | 63.12973 | -29.02245 | 23624 ft | 220 kts | 97° |
| 2026-04-28 14:27 | 63.13392 | -28.98984 | 23624 ft | 220 kts | 97° |
| 2026-04-28 14:27 | 63.13811 | -28.95726 | 23624 ft | 220 kts | 97° |
| 2026-04-28 14:27 | 63.14226 | -28.92478 | 23632 ft | 219 kts | 98° |
| 2026-04-28 14:28 | 63.14641 | -28.89228 | 23633 ft | 220 kts | 97° |
| 2026-04-28 14:28 | 63.15056 | -28.85968 | 23633 ft | 220 kts | 97° |
| 2026-04-28 14:28 | 63.15471 | -28.82706 | 23633 ft | 220 kts | 97° |
| 2026-04-28 14:28 | 63.15885 | -28.79445 | 23633 ft | 221 kts | 97° |
| 2026-04-28 14:29 | 63.16300 | -28.76178 | 23634 ft | 220 kts | 97° |
| 2026-04-28 14:29 | 63.16712 | -28.72919 | 23633 ft | 220 kts | 97° |
| 2026-04-28 14:29 | 63.17122 | -28.69659 | 23633 ft | 220 kts | 98° |
| 2026-04-28 14:29 | 63.17532 | -28.66399 | 23633 ft | 220 kts | 98° |
| 2026-04-28 14:30 | 63.17943 | -28.63135 | 23633 ft | 220 kts | 98° |
| 2026-04-28 14:30 | 63.18352 | -28.59873 | 23634 ft | 220 kts | 98° |
| 2026-04-28 14:30 | 63.18760 | -28.56610 | 23634 ft | 220 kts | 98° |
| 2026-04-28 14:30 | 63.19167 | -28.53352 | 23641 ft | 219 kts | 98° |
| 2026-04-28 14:31 | 63.19573 | -28.50093 | 23642 ft | 219 kts | 98° |
| 2026-04-28 14:31 | 63.19977 | -28.46835 | 23642 ft | 219 kts | 98° |
| 2026-04-28 14:31 | 63.20382 | -28.43573 | 23642 ft | 219 kts | 98° |
| 2026-04-28 14:31 | 63.20785 | -28.40317 | 23643 ft | 220 kts | 98° |
| 2026-04-28 14:32 | 63.21188 | -28.37047 | 23643 ft | 220 kts | 98° |
| 2026-04-28 14:32 | 63.21591 | -28.33783 | 23643 ft | 220 kts | 98° |
| 2026-04-28 14:32 | 63.21988 | -28.30555 | 23643 ft | 220 kts | 98° |
| 2026-04-28 14:32 | 63.22389 | -28.27287 | 23643 ft | 219 kts | 98° |
| 2026-04-28 14:33 | 63.22789 | -28.24022 | 23643 ft | 219 kts | 98° |
| 2026-04-28 14:33 | 63.23194 | -28.20707 | 23643 ft | 219 kts | 98° |
| 2026-04-28 14:33 | 63.23593 | -28.17437 | 23643 ft | 219 kts | 98° |
| 2026-04-28 14:33 | 63.23984 | -28.14217 | 23643 ft | 219 kts | 98° |
| 2026-04-28 14:34 | 63.24775 | -28.07703 | 23651 ft | 219 kts | 98° |
| 2026-04-28 14:34 | 63.25169 | -28.04439 | 23652 ft | 219 kts | 98° |
| 2026-04-28 14:34 | 63.25562 | -28.01173 | 23652 ft | 219 kts | 98° |
| 2026-04-28 14:35 | 63.25956 | -27.97907 | 23652 ft | 219 kts | 98° |
| 2026-04-28 14:35 | 63.26348 | -27.94642 | 23652 ft | 219 kts | 98° |
| 2026-04-28 14:35 | 63.26739 | -27.91375 | 23652 ft | 219 kts | 98° |
| 2026-04-28 14:35 | 63.27130 | -27.88109 | 23652 ft | 219 kts | 98° |
| 2026-04-28 14:36 | 63.27520 | -27.84840 | 23652 ft | 219 kts | 99° |
| 2026-04-28 14:36 | 63.27909 | -27.81574 | 23652 ft | 219 kts | 99° |
| 2026-04-28 14:36 | 63.28297 | -27.78307 | 23652 ft | 218 kts | 99° |
| 2026-04-28 14:36 | 63.28684 | -27.75044 | 23652 ft | 219 kts | 99° |
| 2026-04-28 14:37 | 63.29070 | -27.71773 | 23653 ft | 218 kts | 99° |
| 2026-04-28 14:37 | 63.29456 | -27.68508 | 23661 ft | 218 kts | 99° |
| 2026-04-28 14:37 | 63.29841 | -27.65241 | 23661 ft | 219 kts | 99° |
| 2026-04-28 14:37 | 63.30225 | -27.61970 | 23661 ft | 219 kts | 99° |
| 2026-04-28 14:38 | 63.30608 | -27.58695 | 23661 ft | 219 kts | 99° |
| 2026-04-28 14:38 | 63.30991 | -27.55427 | 23661 ft | 219 kts | 99° |
| 2026-04-28 14:38 | 63.31374 | -27.52148 | 23661 ft | 219 kts | 99° |
| 2026-04-28 14:38 | 63.31754 | -27.48872 | 23661 ft | 219 kts | 99° |
| 2026-04-28 14:39 | 63.32136 | -27.45595 | 23661 ft | 219 kts | 99° |
| 2026-04-28 14:39 | 63.32515 | -27.42324 | 23661 ft | 219 kts | 99° |
| 2026-04-28 14:39 | 63.32893 | -27.39051 | 23662 ft | 218 kts | 99° |
| 2026-04-28 14:39 | 63.33271 | -27.35775 | 23661 ft | 218 kts | 99° |
| 2026-04-28 14:40 | 63.33648 | -27.32500 | 23662 ft | 218 kts | 99° |
| 2026-04-28 14:40 | 63.33897 | -27.30333 | 23662 ft | 218 kts | 99° |
| 2026-04-28 14:40 | 63.34400 | -27.25961 | 23670 ft | 217 kts | 99° |
| 2026-04-28 14:40 | 63.34773 | -27.22702 | 23670 ft | 217 kts | 100° |
| 2026-04-28 14:41 | 63.35144 | -27.19436 | 23670 ft | 218 kts | 100° |
| 2026-04-28 14:41 | 63.35516 | -27.16168 | 23670 ft | 218 kts | 99° |
| 2026-04-28 14:41 | 63.35888 | -27.12895 | 23670 ft | 218 kts | 99° |
| 2026-04-28 14:41 | 63.36258 | -27.09628 | 23670 ft | 218 kts | 99° |
| 2026-04-28 14:42 | 63.36628 | -27.06355 | 23670 ft | 218 kts | 100° |
| 2026-04-28 14:42 | 63.36997 | -27.03083 | 23671 ft | 218 kts | 100° |
| 2026-04-28 14:42 | 63.37366 | -26.99806 | 23671 ft | 218 kts | 100° |
| 2026-04-28 14:42 | 63.37734 | -26.96533 | 23671 ft | 217 kts | 100° |
| 2026-04-28 14:43 | 63.38101 | -26.93263 | 23671 ft | 217 kts | 100° |
| 2026-04-28 14:43 | 63.38499 | -26.89977 | 23667 ft | 224 kts | 95° |
| 2026-04-28 14:43 | 63.38984 | -26.86671 | 23667 ft | 224 kts | 95° |
| 2026-04-28 14:43 | 63.39465 | -26.83369 | 23667 ft | 224 kts | 95° |
| 2026-04-28 14:44 | 63.39942 | -26.80059 | 23668 ft | 224 kts | 95° |
| 2026-04-28 14:44 | 63.40416 | -26.76759 | 23682 ft | 223 kts | 95° |
| 2026-04-28 14:44 | 63.40889 | -26.73461 | 23679 ft | 223 kts | 95° |
| 2026-04-28 14:44 | 63.41362 | -26.70160 | 23680 ft | 223 kts | 95° |
| 2026-04-28 14:45 | 63.41835 | -26.66862 | 23680 ft | 223 kts | 96° |
| 2026-04-28 14:45 | 63.42305 | -26.63574 | 23679 ft | 222 kts | 96° |
| 2026-04-28 14:45 | 63.42774 | -26.60281 | 23680 ft | 222 kts | 96° |
| 2026-04-28 14:45 | 63.43242 | -26.57001 | 23698 ft | 221 kts | 96° |
| 2026-04-28 14:46 | 63.43707 | -26.53724 | 23697 ft | 222 kts | 96° |
| 2026-04-28 14:46 | 63.44171 | -26.50441 | 23697 ft | 222 kts | 96° |
| 2026-04-28 14:46 | 63.44635 | -26.47159 | 23698 ft | 222 kts | 96° |
| 2026-04-28 14:46 | 63.45094 | -26.43908 | 23698 ft | 222 kts | 96° |
| 2026-04-28 14:47 | 63.45557 | -26.40621 | 23698 ft | 222 kts | 96° |
| 2026-04-28 14:47 | 63.46021 | -26.37325 | 23698 ft | 222 kts | 96° |
| 2026-04-28 14:47 | 63.46483 | -26.34031 | 23698 ft | 222 kts | 96° |
| 2026-04-28 14:47 | 63.46945 | -26.30738 | 23698 ft | 222 kts | 96° |
| 2026-04-28 14:48 | 63.47406 | -26.27443 | 23698 ft | 222 kts | 96° |
| 2026-04-28 14:48 | 63.47865 | -26.24151 | 23698 ft | 222 kts | 96° |
| 2026-04-28 14:48 | 63.48324 | -26.20856 | 23698 ft | 222 kts | 96° |
| 2026-04-28 14:48 | 63.48781 | -26.17570 | 23708 ft | 221 kts | 96° |
| 2026-04-28 14:49 | 63.49237 | -26.14278 | 23705 ft | 221 kts | 97° |
| 2026-04-28 14:49 | 63.49692 | -26.10991 | 23708 ft | 221 kts | 97° |
| 2026-04-28 14:49 | 63.50147 | -26.07691 | 23713 ft | 221 kts | 97° |
| 2026-04-28 14:49 | 63.50602 | -26.04405 | 23733 ft | 220 kts | 97° |
| 2026-04-28 14:50 | 63.51053 | -26.01140 | 23752 ft | 219 kts | 98° |
| 2026-04-28 14:50 | 63.51499 | -25.97874 | 23752 ft | 220 kts | 98° |
| 2026-04-28 14:50 | 63.51948 | -25.94592 | 23752 ft | 220 kts | 97° |
| 2026-04-28 14:50 | 63.52398 | -25.91307 | 23753 ft | 221 kts | 97° |
| 2026-04-28 14:51 | 63.52849 | -25.88012 | 23753 ft | 221 kts | 97° |
| 2026-04-28 14:51 | 63.53298 | -25.84710 | 23752 ft | 221 kts | 97° |
| 2026-04-28 14:51 | 63.53748 | -25.81415 | 23763 ft | 221 kts | 97° |
| 2026-04-28 14:51 | 63.54193 | -25.78125 | 23763 ft | 221 kts | 97° |
| 2026-04-28 14:52 | 63.54639 | -25.74827 | 23764 ft | 221 kts | 97° |
| 2026-04-28 14:52 | 63.55085 | -25.71528 | 23765 ft | 221 kts | 97° |
| 2026-04-28 14:52 | 63.55531 | -25.68223 | 23765 ft | 221 kts | 98° |
| 2026-04-28 14:52 | 63.55976 | -25.64922 | 23764 ft | 221 kts | 98° |
| 2026-04-28 14:53 | 63.56420 | -25.61615 | 23764 ft | 221 kts | 98° |
| 2026-04-28 14:53 | 63.56864 | -25.58308 | 23764 ft | 221 kts | 98° |
| 2026-04-28 14:53 | 63.57306 | -25.55001 | 23763 ft | 222 kts | 97° |
| 2026-04-28 14:53 | 63.57748 | -25.51685 | 23763 ft | 222 kts | 97° |
| 2026-04-28 14:54 | 63.58191 | -25.48365 | 23763 ft | 222 kts | 97° |
| 2026-04-28 14:54 | 63.58632 | -25.45045 | 23764 ft | 222 kts | 97° |
| 2026-04-28 14:54 | 63.59074 | -25.41716 | 23764 ft | 222 kts | 97° |
| 2026-04-28 14:54 | 63.59515 | -25.38387 | 23764 ft | 222 kts | 97° |
| 2026-04-28 14:55 | 63.59955 | -25.35052 | 23765 ft | 222 kts | 98° |
| 2026-04-28 14:55 | 63.60395 | -25.31724 | 23773 ft | 222 kts | 98° |
| 2026-04-28 14:55 | 63.60834 | -25.28394 | 23773 ft | 222 kts | 98° |
| 2026-04-28 14:55 | 63.61270 | -25.25073 | 23772 ft | 222 kts | 98° |
| 2026-04-28 14:56 | 63.61707 | -25.21736 | 23772 ft | 223 kts | 98° |
| 2026-04-28 14:56 | 63.62144 | -25.18392 | 23772 ft | 223 kts | 97° |
| 2026-04-28 14:56 | 63.62583 | -25.15040 | 23772 ft | 223 kts | 97° |
| 2026-04-28 14:56 | 63.63020 | -25.11685 | 23773 ft | 224 kts | 97° |
| 2026-04-28 14:57 | 63.63455 | -25.08344 | 23799 ft | 222 kts | 97° |
| 2026-04-28 14:57 | 63.63743 | -25.06136 | 23811 ft | 222 kts | 98° |
| 2026-04-28 14:57 | 63.64318 | -25.01672 | 23808 ft | 223 kts | 98° |
| 2026-04-28 14:57 | 63.64750 | -24.98321 | 23811 ft | 223 kts | 98° |
| 2026-04-28 14:58 | 63.65184 | -24.94958 | 23809 ft | 224 kts | 98° |
| 2026-04-28 14:58 | 63.65619 | -24.91586 | 23811 ft | 224 kts | 98° |
| 2026-04-28 14:58 | 63.66051 | -24.88217 | 23809 ft | 225 kts | 97° |
| 2026-04-28 14:58 | 63.66338 | -24.85977 | 23809 ft | 225 kts | 98° |
| 2026-04-28 14:59 | 63.66771 | -24.82593 | 23809 ft | 225 kts | 98° |
| 2026-04-28 14:59 | 63.67204 | -24.79207 | 23811 ft | 225 kts | 98° |
| 2026-04-28 14:59 | 63.67698 | -24.75811 | 23808 ft | 237 kts | 87° |
| 2026-04-28 14:59 | 63.68524 | -24.72461 | 23810 ft | 247 kts | 77° |
| 2026-04-28 15:00 | 63.69394 | -24.69126 | 23812 ft | 246 kts | 78° |
| 2026-04-28 15:00 | 63.70250 | -24.65782 | 23814 ft | 246 kts | 78° |
| 2026-04-28 15:00 | 63.71102 | -24.62440 | 23812 ft | 246 kts | 78° |
| 2026-04-28 15:00 | 63.71956 | -24.59103 | 23817 ft | 246 kts | 78° |
| 2026-04-28 15:01 | 63.72811 | -24.55758 | 23814 ft | 246 kts | 78° |
| 2026-04-28 15:01 | 63.73667 | -24.52404 | 23811 ft | 247 kts | 78° |
| 2026-04-28 15:01 | 63.74526 | -24.49031 | 23811 ft | 248 kts | 78° |
| 2026-04-28 15:01 | 63.75387 | -24.45648 | 23815 ft | 249 kts | 78° |
| 2026-04-28 15:02 | 63.76248 | -24.42258 | 23812 ft | 249 kts | 77° |
| 2026-04-28 15:02 | 63.77111 | -24.38853 | 23812 ft | 250 kts | 77° |
| 2026-04-28 15:02 | 63.77972 | -24.35455 | 23815 ft | 249 kts | 77° |
| 2026-04-28 15:02 | 63.78833 | -24.32047 | 23812 ft | 250 kts | 77° |
| 2026-04-28 15:03 | 63.79695 | -24.28632 | 23813 ft | 250 kts | 77° |
| 2026-04-28 15:03 | 63.80555 | -24.25217 | 23715 ft | 250 kts | 78° |
| 2026-04-28 15:03 | 63.81418 | -24.21753 | 23205 ft | 256 kts | 77° |
| 2026-04-28 15:03 | 63.82302 | -24.18216 | 22709 ft | 260 kts | 77° |
| 2026-04-28 15:04 | 63.83202 | -24.14644 | 22210 ft | 262 kts | 76° |
| 2026-04-28 15:04 | 63.84103 | -24.11067 | 21713 ft | 260 kts | 76° |
| 2026-04-28 15:04 | 63.84992 | -24.07519 | 21213 ft | 258 kts | 77° |
| 2026-04-28 15:04 | 63.85872 | -24.03989 | 20714 ft | 256 kts | 77° |
| 2026-04-28 15:05 | 63.86746 | -24.00478 | 20216 ft | 255 kts | 76° |
| 2026-04-28 15:05 | 63.87615 | -23.96986 | 19718 ft | 253 kts | 76° |
| 2026-04-28 15:05 | 63.88476 | -23.93517 | 19218 ft | 252 kts | 76° |
| 2026-04-28 15:05 | 63.89333 | -23.90062 | 18722 ft | 250 kts | 76° |
| 2026-04-28 15:06 | 63.90183 | -23.86632 | 18222 ft | 248 kts | 76° |
| 2026-04-28 15:06 | 63.91024 | -23.83229 | 17727 ft | 246 kts | 77° |
| 2026-04-28 15:06 | 63.91839 | -23.79924 | 17421 ft | 236 kts | 77° |
| 2026-04-28 15:06 | 63.92633 | -23.76712 | 17203 ft | 226 kts | 77° |
| 2026-04-28 15:07 | 63.93393 | -23.73657 | 16968 ft | 217 kts | 78° |
| 2026-04-28 15:07 | 63.94128 | -23.70777 | 16742 ft | 210 kts | 78° |
| 2026-04-28 15:07 | 63.94869 | -23.67924 | 16493 ft | 204 kts | 78° |
| 2026-04-28 15:07 | 63.95583 | -23.65133 | 16106 ft | 208 kts | 78° |
| 2026-04-28 15:08 | 63.96300 | -23.62191 | 15612 ft | 217 kts | 78° |
| 2026-04-28 15:08 | 63.96985 | -23.59361 | 15103 ft | 198 kts | 79° |
| 2026-04-28 15:08 | 63.97664 | -23.56466 | 14665 ft | 212 kts | 79° |
| 2026-04-28 15:08 | 63.98339 | -23.53443 | 14155 ft | 213 kts | 79° |
| 2026-04-28 15:09 | 63.98998 | -23.50445 | 13657 ft | 211 kts | 79° |
| 2026-04-28 15:09 | 63.99644 | -23.47467 | 13159 ft | 209 kts | 78° |
| 2026-04-28 15:09 | 64.00399 | -23.44588 | 12656 ft | 213 kts | 70° |
| 2026-04-28 15:09 | 64.00920 | -23.42711 | 12328 ft | 211 kts | 71° |
| 2026-04-28 15:10 | 64.01880 | -23.38884 | 11664 ft | 206 kts | 75° |
| 2026-04-28 15:10 | 64.02558 | -23.36023 | 11169 ft | 204 kts | 74° |
| 2026-04-28 15:10 | 64.03231 | -23.33202 | 10672 ft | 201 kts | 74° |
| 2026-04-28 15:10 | 64.03897 | -23.30485 | 10281 ft | 181 kts | 73° |
| 2026-04-28 15:11 | 64.04477 | -23.28106 | 9964 ft | 173 kts | 75° |
| 2026-04-28 15:11 | 64.05071 | -23.25572 | 9584 ft | 186 kts | 73° |
| 2026-04-28 15:11 | 64.05700 | -23.22947 | 9201 ft | 191 kts | 72° |
| 2026-04-28 15:11 | 64.06298 | -23.20258 | 8809 ft | 184 kts | 87° |
| 2026-04-28 15:12 | 64.06242 | -23.17659 | 8504 ft | 152 kts | 126° |
| 2026-04-28 15:12 | 64.05889 | -23.15475 | 8296 ft | 142 kts | 129° |
| 2026-04-28 15:12 | 64.05555 | -23.13404 | 8108 ft | 136 kts | 129° |
| 2026-04-28 15:12 | 64.05235 | -23.11399 | 7921 ft | 133 kts | 129° |
| 2026-04-28 15:13 | 64.04921 | -23.09429 | 7729 ft | 131 kts | 129° |
| 2026-04-28 15:13 | 64.04572 | -23.07563 | 7535 ft | 126 kts | 134° |
| 2026-04-28 15:13 | 64.04214 | -23.05736 | 7335 ft | 127 kts | 132° |
| 2026-04-28 15:13 | 64.03878 | -23.03875 | 7133 ft | 127 kts | 130° |
| 2026-04-28 15:14 | 64.03557 | -23.02028 | 7003 ft | 121 kts | 130° |
| 2026-04-28 15:14 | 64.03274 | -23.00337 | 6999 ft | 108 kts | 133° |
| 2026-04-28 15:14 | 64.03011 | -22.98803 | 6991 ft | 100 kts | 134° |
| 2026-04-28 15:14 | 64.02769 | -22.97388 | 6991 ft | 92 kts | 136° |
| 2026-04-28 15:15 | 64.02482 | -22.95862 | 7013 ft | 124 kts | 132° |
| 2026-04-28 15:15 | 64.02123 | -22.93847 | 7010 ft | 147 kts | 127° |
| 2026-04-28 15:15 | 64.01743 | -22.91588 | 7005 ft | 158 kts | 126° |
| 2026-04-28 15:15 | 64.01348 | -22.89253 | 7010 ft | 163 kts | 126° |
| 2026-04-28 15:16 | 64.00933 | -22.86833 | 7001 ft | 165 kts | 126° |
| 2026-04-28 15:16 | 64.00515 | -22.84402 | 7004 ft | 165 kts | 126° |
| 2026-04-28 15:16 | 64.00094 | -22.81976 | 7003 ft | 164 kts | 126° |
| 2026-04-28 15:16 | 63.99674 | -22.79560 | 7006 ft | 164 kts | 127° |
| 2026-04-28 15:17 | 63.99255 | -22.77146 | 7001 ft | 164 kts | 127° |
| 2026-04-28 15:17 | 63.98828 | -22.74695 | 7005 ft | 164 kts | 127° |
| 2026-04-28 15:17 | 63.98407 | -22.72277 | 7008 ft | 165 kts | 126° |
| 2026-04-28 15:17 | 63.97983 | -22.69851 | 7004 ft | 165 kts | 127° |
| 2026-04-28 15:18 | 63.97562 | -22.67444 | 7001 ft | 163 kts | 127° |
| 2026-04-28 15:18 | 63.97141 | -22.65037 | 7008 ft | 164 kts | 127° |
| 2026-04-28 15:18 | 63.96726 | -22.62664 | 7005 ft | 163 kts | 126° |
| 2026-04-28 15:18 | 63.96305 | -22.60265 | 7007 ft | 163 kts | 127° |
| 2026-04-28 15:19 | 63.95880 | -22.57864 | 7003 ft | 164 kts | 126° |
| 2026-04-28 15:19 | 63.95463 | -22.55469 | 6999 ft | 163 kts | 126° |
| 2026-04-28 15:19 | 63.95045 | -22.53086 | 7004 ft | 162 kts | 127° |
| 2026-04-28 15:19 | 63.94617 | -22.50678 | 6850 ft | 170 kts | 126° |
| 2026-04-28 15:20 | 63.94148 | -22.48078 | 6517 ft | 180 kts | 125° |
| 2026-04-28 15:20 | 63.93680 | -22.45409 | 6176 ft | 183 kts | 124° |
| 2026-04-28 15:20 | 63.93204 | -22.42697 | 5828 ft | 183 kts | 124° |
| 2026-04-28 15:20 | 63.92757 | -22.40132 | 5502 ft | 170 kts | 125° |
| 2026-04-28 15:21 | 63.92324 | -22.37689 | 5195 ft | 164 kts | 125° |
| 2026-04-28 15:21 | 63.91901 | -22.35334 | 4888 ft | 162 kts | 125° |
| 2026-04-28 15:21 | 63.91490 | -22.33003 | 4657 ft | 157 kts | 125° |
| 2026-04-28 15:21 | 63.91104 | -22.30625 | 4365 ft | 164 kts | 115° |
| 2026-04-28 15:22 | 63.91038 | -22.27994 | 4058 ft | 176 kts | 94° |
| 2026-04-28 15:22 | 63.91415 | -22.25299 | 3740 ft | 183 kts | 69° |
| 2026-04-28 15:22 | 63.92241 | -22.23023 | 3428 ft | 190 kts | 42° |
| 2026-04-28 15:22 | 63.93381 | -22.21622 | 3243 ft | 183 kts | 17° |
| 2026-04-28 15:23 | 63.94546 | -22.21289 | 3081 ft | 156 kts | 352° |
| 2026-04-28 15:23 | 63.95507 | -22.21729 | 2953 ft | 129 kts | 332° |
| 2026-04-28 15:23 | 63.96362 | -22.22455 | 2825 ft | 134 kts | 333° |
| 2026-04-28 15:23 | 63.97245 | -22.23179 | 2682 ft | 135 kts | 332° |
| 2026-04-28 15:24 | 63.98131 | -22.23909 | 2540 ft | 136 kts | 332° |
| 2026-04-28 15:24 | 63.99051 | -22.24162 | 2517 ft | 137 kts | 17° |
| 2026-04-28 15:24 | 63.99652 | -22.22751 | 2517 ft | 118 kts | 89° |
| 2026-04-28 15:24 | 63.99439 | -22.21442 | 2527 ft | 77 kts | 169° |
| 2026-04-28 15:25 | 63.99002 | -22.21876 | 2548 ft | 82 kts | 241° |
| 2026-04-28 15:25 | 63.98808 | -22.23163 | 2518 ft | 88 kts | 244° |
| 2026-04-28 15:25 | 63.98638 | -22.24515 | 2522 ft | 95 kts | 259° |
| 2026-04-28 15:25 | 63.98589 | -22.26012 | 2518 ft | 96 kts | 254° |
| 2026-04-28 15:26 | 63.98540 | -22.27528 | 2516 ft | 96 kts | 256° |
| 2026-04-28 15:26 | 63.98518 | -22.29049 | 2515 ft | 95 kts | 258° |
| 2026-04-28 15:26 | 63.98502 | -22.30553 | 2515 ft | 95 kts | 257° |
| 2026-04-28 15:26 | 63.98493 | -22.31991 | 2493 ft | 87 kts | 257° |
| 2026-04-28 15:27 | 63.98487 | -22.33383 | 2394 ft | 88 kts | 257° |
| 2026-04-28 15:27 | 63.98485 | -22.34791 | 2278 ft | 89 kts | 258° |
| 2026-04-28 15:27 | 63.98488 | -22.36203 | 2161 ft | 90 kts | 258° |
| 2026-04-28 15:27 | 63.98489 | -22.37624 | 2041 ft | 89 kts | 257° |
| 2026-04-28 15:28 | 63.98490 | -22.39009 | 1925 ft | 87 kts | 258° |
| 2026-04-28 15:28 | 63.98491 | -22.40385 | 1805 ft | 86 kts | 257° |
| 2026-04-28 15:28 | 63.98489 | -22.41725 | 1696 ft | 84 kts | 258° |
| 2026-04-28 15:28 | 63.98492 | -22.43053 | 1585 ft | 84 kts | 259° |
| 2026-04-28 15:29 | 63.98495 | -22.44382 | 1477 ft | 84 kts | 258° |
| 2026-04-28 15:29 | 63.98517 | -22.45717 | 1357 ft | 85 kts | 259° |
| 2026-04-28 15:29 | 63.98515 | -22.47060 | 1249 ft | 85 kts | 257° |
| 2026-04-28 15:29 | 63.98515 | -22.48411 | 1132 ft | 85 kts | 258° |
| 2026-04-28 15:30 | 63.98521 | -22.49739 | 1018 ft | 82 kts | 258° |
| 2026-04-28 15:30 | 63.98514 | -22.51012 | 925 ft | 79 kts | 255° |
| 2026-04-28 15:30 | 63.98502 | -22.52272 | 806 ft | 80 kts | 256° |
| 2026-04-28 15:30 | 63.98504 | -22.53550 | 701 ft | 81 kts | 259° |
| 2026-04-28 15:31 | 63.98515 | -22.54819 | 606 ft | 79 kts | 258° |
| 2026-04-28 15:31 | 63.98506 | -22.56066 | 488 ft | 78 kts | 259° |
| 2026-04-28 15:31 | 63.98515 | -22.57286 | 380 ft | 76 kts | 258° |
| 2026-04-28 15:31 | 63.98506 | -22.58499 | 293 ft | 79 kts | 261° |
| 2026-04-28 15:32 | 63.98507 | -22.59772 | 203 ft | 81 kts | 263° |
| 2026-04-28 15:32 | 63.98512 | -22.60577 | 176 ft | 69 kts | 261° |
| 2026-04-28 15:32 | 63.98500 | -22.61814 | 152 ft | 53 kts | 271° |
| 2026-04-28 15:32 | 63.98526 | -22.62528 | 142 ft | 23 kts | 263° |
| 2026-04-28 15:33 | 63.98492 | -22.62586 | 140 ft | 1 kts | 112° |
| 2026-04-28 15:33 | 63.98491 | -22.62556 | 141 ft | 11 kts | 95° |
| 2026-04-28 15:33 | 63.98487 | -22.62166 | 147 ft | 38 kts | 92° |
| 2026-04-28 15:33 | 63.98489 | -22.61541 | 155 ft | 36 kts | 89° |
| 2026-04-28 15:34 | 63.98497 | -22.61039 | 163 ft | 27 kts | 85° |
| 2026-04-28 15:34 | 63.98503 | -22.60682 | 170 ft | 19 kts | 89° |
| 2026-04-28 15:34 | 63.98503 | -22.60438 | 174 ft | 12 kts | 90° |
| 2026-04-28 15:34 | 63.98504 | -22.60225 | 174 ft | 24 kts | 89° |
| 2026-04-28 15:35 | 63.98504 | -22.59696 | 176 ft | 40 kts | 89° |
| 2026-04-28 15:35 | 63.98297 | -22.59122 | 175 ft | 19 kts | 157° |
| 2026-04-28 15:35 | 63.98197 | -22.59028 | 174 ft | 12 kts | 154° |
| 2026-04-28 15:36 | 63.98138 | -22.58966 | 174 ft | 7 kts | 152° |
| 2026-04-28 15:36 | 63.98120 | -22.58898 | 173 ft | 5 kts | 95° |
| 2026-04-28 15:36 | 63.98155 | -22.58826 | 172 ft | 9 kts | 358° |
| 2026-04-28 15:36 | 63.98190 | -22.58828 | 172 ft | 0 kts | 1° |